Time;durP1;ratioP1;P1;durP2;ratioP2;P2;SDS_P1;SDS_P2;PMS_P1;PMS_P2;Temp;Humidity;BMP_temperature;BMP_pressure;BME280_temperature;BME280_humidity;BME280_pressure;Samples;Min_cycle;Max_cycle;Signal;HPM_P1;HPM_P2
2022/10/27 00:00:45;;;;;;;15.43;10.10;;;;;;;11.01;77.82;99923.25;1734837;82;21001;-40
2022/10/27 00:03:13;;;;;;;18.82;11.22;;;;;;;10.98;77.67;99923.39;1734946;82;21021;-40
2022/10/27 00:05:40;;;;;;;13.72;10.50;;;;;;;10.96;77.65;99935.71;1735183;82;21066;-40
2022/10/27 00:08:07;;;;;;;12.82;9.60;;;;;;;10.97;77.48;99935.38;1734999;82;21041;-41
2022/10/27 00:10:34;;;;;;;13.83;10.48;;;;;;;10.98;77.25;99934.25;1734816;82;23080;-40
2022/10/27 00:13:05;;;;;;;16.17;11.80;;;;;;;10.97;77.30;99931.87;1734952;82;20970;-40
2022/10/27 00:15:32;;;;;;;14.23;10.43;;;;;;;10.90;77.47;99929.18;1738516;81;20997;-40
2022/10/27 00:17:59;;;;;;;14.68;10.38;;;;;;;10.84;77.70;99933.88;1735056;82;21190;-40
2022/10/27 00:20:26;;;;;;;16.82;10.30;;;;;;;10.82;77.88;99944.27;1734785;82;21074;-40
2022/10/27 00:22:54;;;;;;;19.73;10.38;;;;;;;10.81;77.98;99942.11;1734832;82;21005;-40
2022/10/27 00:25:21;;;;;;;16.02;11.45;;;;;;;10.81;78.18;99945.39;1734842;82;20887;-40
2022/10/27 00:27:47;;;;;;;16.42;12.60;;;;;;;10.77;78.37;99949.38;1734875;82;21017;-40
2022/10/27 00:30:14;;;;;;;27.37;14.38;;;;;;;10.75;78.45;99952.98;1734871;82;20994;-40
2022/10/27 00:32:41;;;;;;;22.32;14.50;;;;;;;10.73;78.51;99952.56;1735047;82;21045;-40
2022/10/27 00:35:08;;;;;;;26.50;15.60;;;;;;;10.77;78.49;99952.65;1735003;82;21972;-40
2022/10/27 00:37:35;;;;;;;27.55;17.32;;;;;;;10.76;78.62;99962.70;1735198;82;21004;-40
2022/10/27 00:40:01;;;;;;;26.42;18.17;;;;;;;10.71;79.03;99958.88;1734830;82;20946;-40
2022/10/27 00:42:28;;;;;;;28.50;18.92;;;;;;;10.70;79.32;99965.44;1734903;82;21582;-40
2022/10/27 00:44:55;;;;;;;30.05;20.52;;;;;;;10.70;79.58;99964.08;1734941;82;21033;-40
2022/10/27 00:47:25;;;;;;;42.08;22.40;;;;;;;10.76;79.52;99964.06;1734926;82;21200;-40
2022/10/27 00:50:10;;;;;;;35.90;24.40;;;;;;;10.78;79.71;99969.94;1728803;82;20996;-40
2022/10/27 00:52:46;;;;;;;34.08;25.12;;;;;;;10.79;79.76;99970.17;1735108;82;20986;-40
2022/10/27 00:55:20;;;;;;;35.58;25.27;;;;;;;10.78;79.91;99973.22;1734928;82;21514;-40
2022/10/27 00:57:49;;;;;;;38.80;24.90;;;;;;;10.81;79.91;99967.09;1734926;82;21286;-40
2022/10/27 01:00:16;;;;;;;40.92;26.60;;;;;;;10.89;79.84;99973.72;1734782;82;21177;-40
2022/10/27 01:02:43;;;;;;;49.30;29.45;;;;;;;10.93;79.69;99978.47;1734880;82;21291;-40
2022/10/27 01:05:24;;;;;;;42.00;28.30;;;;;;;10.91;79.78;99974.73;1734936;82;20961;-40
2022/10/27 01:07:55;;;;;;;38.53;26.37;;;;;;;10.92;79.76;99976.88;1738285;81;21005;-41
2022/10/27 01:10:23;;;;;;;41.48;24.87;;;;;;;10.94;79.79;99975.98;1734951;82;21084;-40
2022/10/27 01:12:53;;;;;;;39.15;22.62;;;;;;;10.94;79.78;99978.69;1714152;82;21590;-40
2022/10/27 01:15:24;;;;;;;30.92;18.92;;;;;;;10.90;79.97;99979.37;1735093;82;20950;-40
2022/10/27 01:17:59;;;;;;;27.75;16.05;;;;;;;10.89;80.18;99981.84;1730630;82;20974;-40
2022/10/27 01:20:58;;;;;;;14.18;9.50;;;;;;;10.92;80.20;99981.74;1734779;82;21046;-40
2022/10/27 01:23:39;;;;;;;11.63;7.95;;;;;;;10.99;80.30;99984.63;1734842;82;21014;-40
2022/10/27 01:26:51;;;;;;;12.95;7.67;;;;;;;10.99;80.31;99989.30;1734394;82;21556;-40
2022/10/27 01:29:47;;;;;;;9.73;7.72;;;;;;;10.96;80.53;99986.69;1734787;82;21527;-40
2022/10/27 01:32:40;;;;;;;10.05;6.97;;;;;;;10.93;80.66;99990.11;1713705;82;21527;-41
2022/10/27 01:35:19;;;;;;;11.22;8.13;;;;;;;11.00;80.74;99996.27;1735000;82;21014;-40
2022/10/27 01:37:50;;;;;;;11.68;7.37;;;;;;;11.00;80.52;99994.92;1734905;82;21519;-40
2022/10/27 01:40:24;;;;;;;13.58;7.92;;;;;;;10.94;80.72;100000.39;1735014;82;22027;-40
2022/10/27 01:43:08;;;;;;;10.50;7.50;;;;;;;10.93;80.81;99998.81;1734796;82;20883;-40
2022/10/27 01:45:37;;;;;;;11.10;7.55;;;;;;;11.01;80.72;100004.08;1709506;82;21574;-40
2022/10/27 01:48:04;;;;;;;11.83;7.58;;;;;;;11.04;80.49;100013.44;1734960;82;20961;-40
2022/10/27 01:50:37;;;;;;;11.88;7.65;;;;;;;11.00;80.62;100008.48;1734852;82;21346;-40
2022/10/27 01:53:03;;;;;;;11.85;6.97;;;;;;;11.02;80.62;100017.08;1735112;82;21083;-40
2022/10/27 01:56:01;;;;;;;10.50;7.55;;;;;;;11.05;80.35;100019.09;1734864;82;20974;-40
2022/10/27 01:58:48;;;;;;;10.53;8.03;;;;;;;11.05;80.21;100016.37;1736066;82;21566;-41
2022/10/27 02:01:49;;;;;;;10.53;6.75;;;;;;;11.01;80.51;100019.56;1734849;82;21575;-40
2022/10/27 02:04:50;;;;;;;13.93;7.30;;;;;;;11.04;80.26;100017.50;1734938;82;21077;-40
2022/10/27 02:07:28;;;;;;;9.50;6.80;;;;;;;11.06;80.00;100023.39;1734884;82;21143;-40
2022/10/27 02:10:32;;;;;;;13.38;7.75;;;;;;;11.08;79.98;100018.41;1723951;82;21488;-40
2022/10/27 02:12:59;;;;;;;11.03;7.05;;;;;;;11.06;79.78;100022.83;1731204;82;21005;-40
2022/10/27 02:15:46;;;;;;;11.20;6.10;;;;;;;11.04;79.70;100022.93;1734950;82;20966;-40
2022/10/27 02:18:24;;;;;;;12.10;6.85;;;;;;;11.10;79.56;100029.13;1734240;82;21038;-40
2022/10/27 02:20:54;;;;;;;12.88;7.42;;;;;;;11.13;79.48;100022.23;1734877;82;21124;-40
2022/10/27 02:23:21;;;;;;;11.33;6.72;;;;;;;11.11;79.32;100027.21;1735172;82;28214;-40
2022/10/27 02:26:19;;;;;;;9.35;6.87;;;;;;;11.11;79.36;100028.00;1734920;82;20922;-40
2022/10/27 02:29:10;;;;;;;10.82;6.42;;;;;;;11.17;79.19;100025.83;1734867;82;20926;-40
2022/10/27 02:31:42;;;;;;;11.85;7.40;;;;;;;11.21;79.11;100029.42;1734855;82;20965;-40
2022/10/27 02:34:09;;;;;;;9.48;6.53;;;;;;;11.21;79.17;100032.94;1734945;82;21135;-40
2022/10/27 02:36:36;;;;;;;11.65;6.35;;;;;;;11.23;78.91;100023.86;1738415;82;20973;-40
2022/10/27 02:39:03;;;;;;;12.37;6.83;;;;;;;11.26;78.76;100034.04;1734914;82;20894;-40
2022/10/27 02:41:30;;;;;;;12.45;6.47;;;;;;;11.29;78.66;100034.69;1734941;82;21488;-40
2022/10/27 02:43:57;;;;;;;17.98;7.87;;;;;;;11.32;78.75;100037.30;1734787;82;21280;-40
2022/10/27 02:46:24;;;;;;;13.08;6.67;;;;;;;11.31;78.53;100037.86;1734833;82;21234;-40
2022/10/27 02:48:51;;;;;;;11.10;6.67;;;;;;;11.31;78.54;100037.86;1734991;82;20959;-40
2022/10/27 02:51:18;;;;;;;12.50;7.80;;;;;;;11.35;78.40;100039.30;1734942;82;20993;-40
2022/10/27 02:53:46;;;;;;;12.35;7.55;;;;;;;11.39;78.27;100035.31;1735044;82;20930;-40
2022/10/27 02:56:12;;;;;;;9.93;7.67;;;;;;;11.38;78.28;100035.88;1735084;82;21050;-40
2022/10/27 02:58:40;;;;;;;14.33;6.80;;;;;;;11.36;78.26;100038.17;1734953;82;21195;-40
2022/10/27 03:01:06;;;;;;;10.53;6.40;;;;;;;11.36;78.27;100038.73;1735062;82;21491;-40
2022/10/27 03:03:33;;;;;;;14.00;7.33;;;;;;;11.41;78.03;100040.63;1734933;81;21021;-40
2022/10/27 03:06:00;;;;;;;11.48;7.17;;;;;;;11.45;77.90;100034.72;1735030;82;21523;-40
2022/10/27 03:08:26;;;;;;;10.98;7.90;;;;;;;11.45;77.86;100039.36;1734963;82;21029;-40
2022/10/27 03:10:55;;;;;;;11.83;6.67;;;;;;;11.41;77.77;100045.27;1734913;82;23197;-40
2022/10/27 03:13:22;;;;;;;9.98;6.83;;;;;;;11.40;77.94;100047.20;1735013;82;20946;-40
2022/10/27 03:15:49;;;;;;;13.20;7.67;;;;;;;11.44;77.65;100045.36;1735115;82;20989;-40
2022/10/27 03:18:16;;;;;;;16.27;7.60;;;;;;;11.45;77.50;100053.73;1734922;82;21507;-40
2022/10/27 03:20:45;;;;;;;11.90;7.50;;;;;;;11.41;77.64;100058.84;1735123;82;21007;-48
2022/10/27 03:23:13;;;;;;;18.57;7.67;;;;;;;11.37;77.77;100057.41;1735517;82;21208;-40
2022/10/27 03:25:43;;;;;;;15.10;7.12;;;;;;;11.36;77.83;100057.17;1734982;82;21053;-40
2022/10/27 03:28:11;;;;;;;13.88;7.30;;;;;;;11.39;77.71;100063.26;1734834;82;21062;-40
2022/10/27 03:30:39;;;;;;;15.38;7.67;;;;;;;11.40;77.71;100056.70;1735194;82;20973;-40
2022/10/27 03:33:06;;;;;;;12.25;7.08;;;;;;;11.38;77.69;100063.03;1735209;82;21033;-40
2022/10/27 03:35:33;;;;;;;12.20;7.22;;;;;;;11.32;77.82;100054.94;1734906;82;21144;-40
2022/10/27 03:38:01;;;;;;;10.65;6.45;;;;;;;11.27;77.81;100047.05;1735010;82;20983;-40
2022/10/27 03:40:28;;;;;;;12.93;6.80;;;;;;;11.31;77.77;100059.58;1734800;82;21065;-40
2022/10/27 03:42:57;;;;;;;11.03;7.47;;;;;;;11.34;77.63;100059.44;1734905;82;21030;-40
2022/10/27 03:45:25;;;;;;;12.85;7.53;;;;;;;11.30;77.60;100061.27;1734902;82;21555;-40
2022/10/27 03:48:10;;;;;;;12.40;6.58;;;;;;;11.23;77.70;100065.92;1734942;82;21264;-40
2022/10/27 03:50:38;;;;;;;11.03;6.17;;;;;;;11.22;77.86;100063.58;1735346;82;20934;-40
2022/10/27 03:53:05;;;;;;;11.80;6.20;;;;;;;11.26;77.74;100067.17;1734966;82;21044;-40
2022/10/27 05:50:26;;;;;;;8.05;5.67;;;;;;;11.06;79.01;100150.36;1822678;78;22622;-40
2022/10/27 05:52:53;;;;;;;8.45;5.85;;;;;;;11.12;77.87;100158.48;1781770;80;21560;-40
2022/10/27 05:55:20;;;;;;;10.53;5.78;;;;;;;11.05;77.48;100166.41;1780076;80;21128;-40
2022/10/27 05:57:59;;;;;;;8.98;6.05;;;;;;;11.02;77.36;100167.10;1774262;80;20915;-40
2022/10/27 06:00:32;;;;;;;7.80;5.58;;;;;;;11.03;77.00;100165.19;1780205;80;21540;-40
2022/10/27 06:03:02;;;;;;;10.10;5.85;;;;;;;11.03;76.91;100170.05;1780094;80;21022;-40
2022/10/27 06:05:30;;;;;;;9.18;6.40;;;;;;;10.97;76.95;100167.91;1780290;80;20923;-40
2022/10/27 06:07:58;;;;;;;8.95;6.03;;;;;;;10.97;76.92;100169.25;1780354;80;21179;-40
2022/10/27 06:10:28;;;;;;;14.78;7.22;;;;;;;11.02;76.89;100170.38;1780231;80;20973;-40
2022/10/27 06:13:02;;;;;;;9.08;6.45;;;;;;;11.09;76.91;100170.58;1780346;80;21592;-40
2022/10/27 06:15:32;;;;;;;9.65;7.12;;;;;;;11.12;76.64;100176.69;1779960;80;21539;-40
2022/10/27 06:17:58;;;;;;;12.60;6.85;;;;;;;11.10;76.50;100174.88;1780074;80;21271;-40
2022/10/27 06:20:26;;;;;;;11.08;6.22;;;;;;;11.10;76.67;100183.02;1779878;80;21086;-40
2022/10/27 06:22:54;;;;;;;11.50;6.50;;;;;;;11.18;76.56;100185.59;1774411;80;21155;-40
2022/10/27 06:25:21;;;;;;;11.45;6.78;;;;;;;11.25;76.32;100190.45;1780099;80;21626;-40
2022/10/27 06:27:48;;;;;;;10.20;7.72;;;;;;;11.24;75.88;100187.50;1779912;80;21528;-40
2022/10/27 06:30:15;;;;;;;8.75;5.97;;;;;;;11.21;75.79;100192.27;1779998;80;21509;-41
2022/10/27 06:32:43;;;;;;;10.58;6.40;;;;;;;11.17;76.03;100192.17;1779978;80;21246;-40
2022/10/27 06:35:10;;;;;;;9.75;6.50;;;;;;;11.18;75.95;100198.39;1779816;80;20983;-40
2022/10/27 06:37:39;;;;;;;11.20;7.08;;;;;;;11.21;76.21;100203.92;1779733;80;21014;-40
2022/10/27 06:40:08;;;;;;;10.53;6.87;;;;;;;11.24;76.18;100197.00;1779554;80;21076;-40
2022/10/27 06:42:36;;;;;;;10.17;6.67;;;;;;;11.26;76.39;100201.53;1780547;80;20982;-40
2022/10/27 06:45:03;;;;;;;10.28;6.78;;;;;;;11.33;76.20;100205.80;1779713;80;23211;-41
2022/10/27 06:47:32;;;;;;;8.53;6.00;;;;;;;11.41;76.08;100212.24;1780214;80;21477;-40
2022/10/27 06:49:58;;;;;;;10.18;6.75;;;;;;;11.48;75.62;100205.64;1783889;80;21017;-40
2022/10/27 06:52:26;;;;;;;11.53;7.30;;;;;;;11.46;75.60;100214.72;1779953;80;20994;-40
2022/10/27 06:54:53;;;;;;;12.55;7.17;;;;;;;11.42;75.58;100209.19;1786073;80;20983;-40
2022/10/27 06:57:20;;;;;;;11.33;6.78;;;;;;;11.44;75.73;100210.98;1786081;80;21558;-40
2022/10/27 06:59:47;;;;;;;10.85;6.80;;;;;;;11.51;75.62;100217.98;1785718;80;21551;-40
2022/10/27 07:02:14;;;;;;;12.40;7.45;;;;;;;11.57;75.12;100215.23;1785679;80;21010;-40
2022/10/27 07:04:41;;;;;;;8.68;6.58;;;;;;;11.56;75.25;100222.38;1785723;80;21017;-40
2022/10/27 07:07:08;;;;;;;10.43;6.92;;;;;;;11.57;75.09;100219.30;1785600;80;21539;-40
2022/10/27 07:09:35;;;;;;;13.18;7.55;;;;;;;11.61;75.26;100225.65;1785485;80;23217;-40
2022/10/27 07:12:03;;;;;;;11.40;6.53;;;;;;;11.65;74.77;100221.67;1785524;80;20919;-40
2022/10/27 07:14:31;;;;;;;10.82;7.20;;;;;;;11.69;74.81;100221.98;1785686;80;21010;-40
2022/10/27 07:16:59;;;;;;;12.45;7.25;;;;;;;11.78;74.49;100223.78;1785461;80;21492;-40
2022/10/27 07:19:26;;;;;;;13.48;7.53;;;;;;;11.74;74.59;100225.84;1785770;80;21001;-40
2022/10/27 07:21:53;;;;;;;15.40;7.50;;;;;;;11.75;74.53;100223.92;1785462;80;21147;-40
2022/10/27 07:24:20;;;;;;;14.58;7.47;;;;;;;11.77;74.61;100231.14;1754799;80;21014;-40
2022/10/27 07:26:47;;;;;;;12.15;7.12;;;;;;;11.86;74.57;100233.14;1785363;80;20947;-41
2022/10/27 07:29:14;;;;;;;14.90;7.65;;;;;;;11.96;74.29;100231.84;1785221;80;21364;-40
2022/10/27 07:31:45;;;;;;;14.70;7.45;;;;;;;11.98;74.19;100225.52;1785508;80;21042;-41
2022/10/27 07:34:14;;;;;;;10.88;6.85;;;;;;;11.97;74.12;100235.59;1785327;80;21860;-40
2022/10/27 07:36:40;;;;;;;9.23;6.53;;;;;;;11.67;73.85;100190.86;1785298;80;21002;-40
2022/10/27 07:39:07;;;;;;;12.40;7.45;;;;;;;11.99;73.87;100244.77;1785442;80;20999;-40
2022/10/27 07:41:36;;;;;;;9.60;7.30;;;;;;;12.04;73.76;100241.80;1785557;80;21041;-40
2022/10/27 07:44:03;;;;;;;12.98;7.92;;;;;;;12.04;73.79;100237.72;1785405;80;21038;-40
2022/10/27 07:46:30;;;;;;;14.00;7.75;;;;;;;12.04;73.77;100248.59;1785594;80;21129;-40
2022/10/27 07:48:56;;;;;;;11.30;7.53;;;;;;;12.08;73.50;100246.75;1782988;80;20999;-40
2022/10/27 07:51:23;;;;;;;9.25;7.47;;;;;;;12.08;73.08;100252.98;1768692;81;21496;-40
2022/10/27 07:53:50;;;;;;;14.65;7.87;;;;;;;12.08;73.26;100252.19;1768805;81;21691;-40
2022/10/27 07:56:17;;;;;;;11.63;8.48;;;;;;;12.08;73.46;100260.34;1768732;81;21018;-40
2022/10/27 07:58:49;;;;;;;15.98;8.15;;;;;;;12.05;73.20;100265.13;1768855;81;22111;-41
2022/10/27 08:01:16;;;;;;;12.70;7.50;;;;;;;12.02;73.44;100264.44;1768731;81;20975;-40
2022/10/27 08:03:42;;;;;;;13.98;7.97;;;;;;;12.02;73.45;100261.72;1768675;81;21482;-40
2022/10/27 08:06:09;;;;;;;11.85;8.10;;;;;;;12.03;73.32;100261.38;1768496;81;21533;-41
2022/10/27 08:08:36;;;;;;;11.73;8.23;;;;;;;12.04;73.51;100263.54;1762877;81;21067;-40
2022/10/27 08:11:05;;;;;;;15.32;7.55;;;;;;;12.08;73.58;100266.57;1762331;81;21579;-40
2022/10/27 08:13:32;;;;;;;10.93;8.03;;;;;;;12.14;73.50;100268.48;1768377;81;20983;-41
2022/10/27 08:15:58;;;;;;;10.55;7.53;;;;;;;12.16;73.04;100274.34;1768685;81;21096;-41
2022/10/27 08:18:27;;;;;;;13.13;8.03;;;;;;;12.17;72.97;100271.28;1768612;81;21592;-40
2022/10/27 08:20:53;;;;;;;12.33;8.28;;;;;;;12.14;72.73;100276.62;1768616;81;20988;-40
2022/10/27 08:23:24;;;;;;;11.88;7.65;;;;;;;12.07;72.90;100275.06;1768487;81;21093;-40
2022/10/27 08:25:51;;;;;;;11.03;7.45;;;;;;;12.08;73.15;100273.93;1768743;81;21053;-40
2022/10/27 08:28:18;;;;;;;12.68;8.05;;;;;;;12.16;73.02;100277.84;1768609;81;21013;-40
2022/10/27 08:30:46;;;;;;;11.15;7.97;;;;;;;12.26;73.15;100277.91;1768663;81;21035;-41
2022/10/27 08:33:14;;;;;;;11.57;7.78;;;;;;;12.32;72.76;100278.45;1768695;81;20991;-40
2022/10/27 08:35:41;;;;;;;11.28;7.70;;;;;;;12.36;72.71;100286.92;1768635;81;21094;-40
2022/10/27 08:38:13;;;;;;;8.63;6.87;;;;;;;12.41;72.68;100289.95;1768731;81;21041;-40
2022/10/27 08:41:02;;;;;;;10.35;6.97;;;;;;;12.45;71.93;100279.39;1769077;81;21007;-40
2022/10/27 08:43:59;;;;;;;12.10;7.47;;;;;;;12.49;71.68;100287.06;1756960;81;20940;-41
2022/10/27 08:46:50;;;;;;;9.95;7.20;;;;;;;12.52;71.68;100291.83;1768900;81;21090;-40
2022/10/27 08:49:44;;;;;;;13.28;8.63;;;;;;;12.54;71.94;100293.61;1768608;81;21254;-40
2022/10/27 08:52:16;;;;;;;10.38;7.25;;;;;;;12.56;71.97;100279.09;1755171;81;21027;-40
2022/10/27 08:54:54;;;;;;;14.05;6.75;;;;;;;12.61;71.68;100288.36;1767462;81;21516;-40
2022/10/27 08:57:27;;;;;;;13.08;7.22;;;;;;;12.72;71.32;100293.28;1768100;81;21023;-40
2022/10/27 08:59:54;;;;;;;10.63;7.00;;;;;;;12.80;71.08;100291.74;1768310;81;20936;-40
2022/10/27 09:03:06;;;;;;;8.45;6.97;;;;;;;12.84;70.77;100293.19;1768638;81;22166;-40
2022/10/27 09:05:50;;;;;;;12.45;8.23;;;;;;;12.80;70.64;100293.67;1768218;81;21035;-40
2022/10/27 09:08:38;;;;;;;8.80;6.45;;;;;;;12.75;71.26;100300.17;1768078;81;21026;-41
2022/10/27 09:11:50;;;;;;;14.13;7.15;;;;;;;12.82;71.29;100299.00;1768500;81;21087;-40
2022/10/27 09:14:57;;;;;;;10.03;6.90;;;;;;;12.93;71.17;100301.95;1768647;81;21075;-40
2022/10/27 09:17:33;;;;;;;11.93;6.72;;;;;;;12.95;70.40;100297.76;1768869;81;21251;-41
2022/10/27 09:20:30;;;;;;;14.55;7.25;;;;;;;12.95;70.79;100302.41;1768404;81;21023;-40
2022/10/27 09:22:58;;;;;;;12.07;6.12;;;;;;;12.95;70.08;100305.13;1768862;81;21034;-40
2022/10/27 09:25:26;;;;;;;11.30;6.92;;;;;;;12.91;70.10;100306.41;1768723;81;21082;-40
2022/10/27 09:27:56;;;;;;;13.13;6.05;;;;;;;12.92;70.13;100308.56;1768647;81;20970;-40
2022/10/27 09:30:22;;;;;;;10.55;6.50;;;;;;;12.93;70.49;100306.04;1768730;81;21631;-40
2022/10/27 09:32:52;;;;;;;13.03;7.10;;;;;;;12.97;70.56;100304.22;1768539;81;21468;-40
2022/10/27 09:35:27;;;;;;;12.40;5.90;;;;;;;12.98;70.36;100297.61;1768129;81;25972;-40
2022/10/27 09:37:55;;;;;;;8.70;5.95;;;;;;;13.00;69.96;100301.58;1768472;81;20971;-40
2022/10/27 09:40:22;;;;;;;10.45;5.70;;;;;;;13.07;69.84;100300.94;1745068;81;21042;-40
2022/10/27 09:42:56;;;;;;;9.50;6.35;;;;;;;13.11;69.83;100299.14;1768431;81;23128;-40
2022/10/27 09:45:25;;;;;;;10.38;6.60;;;;;;;13.11;69.42;100303.77;1768414;81;20963;-41
2022/10/27 09:48:06;;;;;;;9.45;6.62;;;;;;;13.06;69.67;100306.98;1768787;81;20971;-40
2022/10/27 09:50:40;;;;;;;7.92;5.80;;;;;;;13.03;69.92;100301.42;1773884;80;21010;-40
2022/10/27 09:53:37;;;;;;;8.70;5.70;;;;;;;13.04;69.90;100298.36;1785174;80;21016;-40
2022/10/27 09:56:08;;;;;;;10.05;6.33;;;;;;;13.11;69.53;100299.14;1785204;80;23169;-40
2022/10/27 09:58:46;;;;;;;9.88;6.22;;;;;;;13.10;69.86;100302.17;1785007;80;21034;-41
2022/10/27 10:01:12;;;;;;;11.40;5.95;;;;;;;13.13;69.94;100295.48;1785452;80;20986;-40
2022/10/27 10:03:39;;;;;;;8.98;5.75;;;;;;;13.16;69.90;100298.88;1785573;80;21010;-40
2022/10/27 10:06:28;;;;;;;16.45;5.87;;;;;;;13.18;69.82;100293.84;1785316;80;21081;-40
2022/10/27 10:09:03;;;;;;;8.63;4.95;;;;;;;13.26;69.74;100304.34;1785375;80;21143;-40
2022/10/27 10:11:31;;;;;;;9.90;5.40;;;;;;;13.29;68.85;100300.34;1754751;80;20982;-40
2022/10/27 10:14:00;;;;;;;9.95;5.10;;;;;;;13.26;68.70;100305.14;1785159;80;20995;-40
2022/10/27 10:16:27;;;;;;;8.13;5.10;;;;;;;13.24;68.65;100307.42;1785281;80;20991;-40
2022/10/27 10:19:08;;;;;;;8.28;4.67;;;;;;;13.22;68.80;100305.61;1785271;80;21090;-41
2022/10/27 10:21:53;;;;;;;6.35;4.35;;;;;;;13.21;68.46;100297.24;1784799;80;22061;-40
2022/10/27 10:24:28;;;;;;;8.23;4.85;;;;;;;13.25;68.30;100304.13;1785371;80;21594;-40
2022/10/27 11:12:42;;;;;;;8.65;4.33;;;;;;;14.41;65.11;100276.36;1745630;78;21078;-41
2022/10/27 11:15:26;;;;;;;6.80;4.12;;;;;;;14.54;65.99;100277.76;1805105;79;20913;-41
2022/10/27 11:17:57;;;;;;;6.92;3.50;;;;;;;14.66;65.29;100285.20;1780485;80;21475;-41
2022/10/27 11:20:29;;;;;;;7.35;3.83;;;;;;;14.74;64.56;100278.70;1847118;77;20909;-41
2022/10/27 11:22:57;;;;;;;7.90;3.80;;;;;;;14.78;64.23;100285.00;1847046;77;21140;-41
2022/10/27 11:25:33;;;;;;;6.22;3.92;;;;;;;14.83;64.12;100285.84;1838585;77;20911;-41
2022/10/27 11:28:18;;;;;;;7.37;3.80;;;;;;;14.83;63.14;100288.00;1781798;79;20953;-41
2022/10/27 11:31:16;;;;;;;8.85;3.98;;;;;;;14.74;63.17;100292.92;1802128;78;21064;-41
2022/10/27 11:34:05;;;;;;;8.70;3.95;;;;;;;14.61;63.59;100291.53;1802009;79;20997;-41
2022/10/27 11:36:46;;;;;;;8.63;4.10;;;;;;;14.47;63.76;100296.75;1802289;79;21232;-41
2022/10/27 11:39:24;;;;;;;8.45;3.87;;;;;;;14.38;64.30;100300.28;1802636;79;21498;-41
2022/10/27 11:42:21;;;;;;;6.85;3.80;;;;;;;14.33;64.21;100301.31;1801916;78;20910;-41
2022/10/27 11:45:23;;;;;;;7.62;4.45;;;;;;;14.28;64.36;100307.84;1801931;78;21072;-41
2022/10/27 11:47:55;;;;;;;7.60;4.10;;;;;;;14.19;64.61;100311.95;1796150;79;21029;-41
2022/10/27 11:50:44;;;;;;;8.70;4.20;;;;;;;14.09;64.92;100307.08;1802183;78;22031;-41
2022/10/27 11:53:11;;;;;;;7.53;3.98;;;;;;;14.00;65.21;100318.20;1802026;79;20986;-41
2022/10/27 11:55:44;;;;;;;8.05;4.25;;;;;;;13.92;65.61;100313.77;1801672;79;21020;-41
2022/10/27 11:58:46;;;;;;;11.50;4.10;;;;;;;13.91;66.12;100317.06;1801690;79;21063;-41
2022/10/27 14:22:36;;;;;;;7.45;4.40;;;;;;;13.60;70.69;100364.08;1850361;76;22987;-40
2022/10/27 14:25:21;;;;;;;8.55;4.72;;;;;;;13.66;69.21;100368.08;1824445;78;21593;-40
2022/10/27 14:27:48;;;;;;;8.68;4.70;;;;;;;13.57;68.56;100375.67;1827741;78;21888;-40
2022/10/27 14:30:19;;;;;;;7.55;4.28;;;;;;;13.52;68.38;100380.02;1827772;78;21004;-41
2022/10/27 14:32:46;;;;;;;9.20;4.65;;;;;;;13.46;67.77;100374.84;1827714;78;21037;-41
2022/10/27 14:35:27;;;;;;;9.08;4.33;;;;;;;13.39;67.70;100385.59;1827716;78;21038;-40
2022/10/27 14:37:56;;;;;;;9.05;4.60;;;;;;;13.35;67.79;100377.91;1828069;78;24115;-41
2022/10/27 14:40:29;;;;;;;6.72;4.20;;;;;;;13.36;67.83;100381.43;1827679;78;21113;-41
2022/10/27 14:42:56;;;;;;;9.25;4.83;;;;;;;13.33;67.96;100384.27;1827023;78;21025;-41
2022/10/27 14:45:22;;;;;;;8.58;4.80;;;;;;;13.31;67.94;100387.91;1827766;78;20992;-41
2022/10/27 14:48:04;;;;;;;6.55;4.45;;;;;;;13.29;67.96;100388.84;1827598;78;21009;-41
2022/10/27 14:50:34;;;;;;;7.55;4.40;;;;;;;13.28;68.12;100389.19;1827663;78;21296;-41
2022/10/27 14:53:02;;;;;;;10.25;4.95;;;;;;;13.31;68.13;100393.34;1826570;78;21127;-41
2022/10/27 14:55:36;;;;;;;8.80;5.03;;;;;;;13.36;67.92;100399.89;1827683;78;21009;-41
2022/10/27 14:58:17;;;;;;;10.75;5.60;;;;;;;13.35;67.61;100402.99;1827673;78;21010;-41
2022/10/27 15:00:47;;;;;;;8.03;4.78;;;;;;;13.27;67.94;100399.29;1827526;78;21022;-41
2022/10/27 15:03:33;;;;;;;11.15;5.85;;;;;;;12.99;68.17;100360.44;1797758;78;21029;-41
2022/10/27 15:06:19;;;;;;;8.85;5.67;;;;;;;13.27;68.20;100406.09;1827665;78;21225;-41
2022/10/27 15:08:47;;;;;;;9.78;4.97;;;;;;;13.27;68.17;100410.75;1827745;78;21633;-41
2022/10/27 15:11:21;;;;;;;10.05;4.85;;;;;;;13.24;68.21;100407.38;1827624;78;21041;-41
2022/10/27 15:13:50;;;;;;;7.47;5.10;;;;;;;13.25;68.11;100408.39;1827703;78;21049;-41
2022/10/27 15:16:25;;;;;;;9.40;4.67;;;;;;;13.22;68.23;100415.09;1827845;78;21014;-41
2022/10/27 15:18:52;;;;;;;6.15;4.33;;;;;;;13.17;68.16;100410.70;1827816;78;21535;-41
2022/10/27 15:21:22;;;;;;;9.95;4.83;;;;;;;13.15;68.32;100407.55;1814416;78;21792;-41
2022/10/27 15:23:54;;;;;;;7.15;4.62;;;;;;;13.16;68.51;100403.70;1798100;79;26022;-41
2022/10/27 15:26:25;;;;;;;8.10;5.40;;;;;;;13.21;68.40;100404.80;1797508;79;20927;-41
2022/10/27 15:28:53;;;;;;;10.20;5.30;;;;;;;13.30;68.22;100408.13;1798137;79;20978;-41
2022/10/27 15:31:20;;;;;;;9.30;5.28;;;;;;;13.34;67.75;100404.92;1797935;79;21778;-41
2022/10/27 15:33:59;;;;;;;8.93;4.78;;;;;;;13.31;67.85;100413.02;1797364;79;20950;-41
2022/10/27 15:36:26;;;;;;;10.32;5.90;;;;;;;13.25;67.91;100412.48;1797600;79;21042;-41
2022/10/27 15:38:53;;;;;;;10.18;5.10;;;;;;;13.18;68.01;100419.66;1797491;79;20915;-41
2022/10/27 15:41:27;;;;;;;9.35;5.28;;;;;;;13.14;68.16;100420.16;1797351;79;21084;-41
2022/10/27 15:44:17;;;;;;;11.50;6.20;;;;;;;13.12;68.28;100417.01;1797389;79;23191;-41
2022/10/27 15:46:45;;;;;;;7.37;5.45;;;;;;;13.14;68.38;100419.58;1797357;79;21001;-41
2022/10/27 15:49:28;;;;;;;8.38;5.80;;;;;;;13.14;68.35;100422.31;1797401;79;21026;-41
2022/10/27 15:52:03;;;;;;;7.92;5.62;;;;;;;13.12;68.42;100420.49;1797482;79;21023;-41
2022/10/27 15:54:41;;;;;;;8.73;6.20;;;;;;;13.13;68.50;100426.73;1797355;79;20960;-41
2022/10/27 15:57:39;;;;;;;10.90;6.20;;;;;;;13.10;68.66;100428.20;1797415;79;21214;-41
2022/10/27 16:00:23;;;;;;;12.68;6.78;;;;;;;13.11;68.51;100427.10;1797363;79;20951;-41
2022/10/27 16:02:59;;;;;;;10.63;6.17;;;;;;;13.13;68.54;100428.89;1797293;79;21543;-41
2022/10/27 16:05:34;;;;;;;8.63;6.17;;;;;;;13.13;68.61;100424.80;1782437;79;20922;-41
2022/10/27 16:08:16;;;;;;;9.88;6.35;;;;;;;13.11;68.69;100429.83;1792545;79;21005;-40
2022/10/27 16:10:43;;;;;;;9.95;6.50;;;;;;;13.09;68.74;100433.42;1797319;79;21128;-41
2022/10/27 16:13:14;;;;;;;9.33;5.58;;;;;;;13.07;68.84;100434.33;1755054;79;20963;-41
2022/10/27 16:15:42;;;;;;;11.57;6.10;;;;;;;13.07;68.81;100437.05;1797473;79;20969;-41
2022/10/27 16:18:10;;;;;;;9.10;6.08;;;;;;;13.11;68.93;100439.89;1797354;79;20978;-41
2022/10/27 16:20:43;;;;;;;10.23;6.87;;;;;;;13.12;68.86;100445.00;1782398;78;21631;-41
2022/10/27 16:23:13;;;;;;;13.55;7.05;;;;;;;13.06;68.96;100438.22;1781463;79;20910;-41
2022/10/27 16:25:43;;;;;;;9.45;6.72;;;;;;;13.00;69.23;100444.48;1791802;79;20994;-41
2022/10/27 16:28:15;;;;;;;8.95;7.00;;;;;;;12.98;69.24;100443.23;1797408;79;21544;-41
2022/10/27 16:30:43;;;;;;;11.00;7.17;;;;;;;12.96;69.39;100443.61;1797506;79;21460;-41
2022/10/27 16:33:16;;;;;;;9.75;6.50;;;;;;;13.00;69.40;100439.04;1797427;79;21454;-41
2022/10/27 16:35:44;;;;;;;10.63;6.67;;;;;;;13.08;69.25;100439.44;1797329;79;21213;-41
2022/10/27 16:38:12;;;;;;;8.98;6.45;;;;;;;13.12;69.26;100442.87;1797371;79;20923;-41
2022/10/27 16:40:40;;;;;;;11.95;7.10;;;;;;;13.15;69.13;100436.15;1797140;79;21515;-41
2022/10/27 16:43:21;;;;;;;12.03;7.10;;;;;;;13.11;69.06;100436.63;1797546;79;21527;-41
2022/10/27 16:45:48;;;;;;;10.45;6.70;;;;;;;13.09;69.02;100449.76;1783686;79;21038;-41
2022/10/27 16:48:16;;;;;;;9.35;6.90;;;;;;;13.04;69.11;100445.36;1797380;79;23189;-41